createdAt,value
2019-04-23T00:00:13.954Z,80.3894
2019-04-23T00:01:28.456Z,80.4932
2019-04-23T00:02:30.128Z,80.8044
2019-04-23T00:03:34.534Z,80.7007
2019-04-23T00:06:00.526Z,80.3894
2019-04-23T00:07:09.255Z,80.3284
2019-04-23T00:08:09.699Z,80.2246
2019-04-23T00:09:20.511Z,80.8411
2019-04-23T00:10:30.049Z,81.1462
2019-04-23T00:11:35.754Z,81.6650
2019-04-23T00:13:49.823Z,82.4829
2019-04-23T00:15:04.399Z,82.3853
2019-04-23T00:16:18.630Z,82.1411
2019-04-23T00:17:19.284Z,81.9702
2019-04-23T00:18:26.526Z,81.8665
2019-04-23T00:19:32.958Z,81.7627
2019-04-23T00:20:33.989Z,81.7627
2019-04-23T00:21:49.989Z,81.7627
2019-04-23T00:26:25.263Z,81.9702
2019-04-23T00:27:29.518Z,82.1777
2019-04-23T00:28:38.958Z,82.3853
2019-04-23T00:29:48.463Z,82.2815
2019-04-23T00:30:55.043Z,81.8665
2019-04-23T00:32:05.061Z,82.0740
2019-04-23T00:33:12.058Z,82.1777
2019-04-23T00:34:28.069Z,82.5867
2019-04-23T00:35:18.164Z,82.6904
2019-04-23T00:36:32.498Z,82.7942
2019-04-23T00:37:35.310Z,82.6904
2019-04-23T00:38:45.169Z,82.6904
2019-04-23T00:39:52.845Z,82.6294
2019-04-23T00:41:02.876Z,82.6294
2019-04-23T00:42:15.482Z,82.6294
2019-04-23T00:44:33.583Z,82.5256
2019-04-23T00:45:41.137Z,82.7271
2019-04-23T00:46:43.473Z,82.9346
2019-04-23T00:47:52.655Z,83.0017
2019-04-23T00:51:09.989Z,82.7271
2019-04-23T00:52:28.920Z,82.9346
2019-04-23T00:53:28.316Z,83.0383
2019-04-23T00:54:39.220Z,82.9346
2019-04-23T00:58:10.776Z,83.1421
2019-04-23T00:59:12.574Z,83.2458
2019-04-23T01:00:32.142Z,83.2458
2019-04-23T01:01:41.321Z,83.1421
2019-04-23T01:02:36.952Z,83.1421
2019-04-23T01:03:39.485Z,83.0383
2019-04-23T01:04:56.437Z,83.0383
2019-04-23T01:06:02.724Z,83.2458
2019-04-23T01:07:14.734Z,83.6548
2019-04-23T01:08:20.127Z,83.7219
2019-04-23T01:10:41.419Z,83.2458
2019-04-23T01:11:41.914Z,83.1421
2019-04-23T01:12:51.487Z,83.0383
2019-04-23T01:14:04.348Z,82.9346
2019-04-23T01:15:04.669Z,83.0383
2019-04-23T01:16:13.153Z,83.4473
2019-04-23T01:17:30.209Z,83.8623
2019-04-23T01:18:45.284Z,83.9661
2019-04-23T01:19:41.870Z,84.0698
2019-04-23T01:20:44.179Z,83.9661
2019-04-23T01:21:32.535Z,83.9661
2019-04-23T01:22:35.718Z,83.8623
2019-04-23T01:23:45.869Z,83.9661
2019-04-23T01:24:48.227Z,83.9661
2019-04-23T01:26:00.271Z,84.0698
2019-04-23T01:27:39.312Z,84.1675
2019-04-23T01:28:39.631Z,84.0698
2019-04-23T01:29:42.534Z,83.9661
2019-04-23T01:32:02.790Z,84.2102
2019-04-23T01:33:10.992Z,84.2102
2019-04-23T01:34:19.759Z,84.1064
2019-04-23T01:35:18.908Z,84.0027
2019-04-23T01:37:43.255Z,83.8989
2019-04-23T01:38:55.687Z,84.0027
2019-04-23T01:39:58.169Z,84.0027
2019-04-23T01:41:00.367Z,84.3140
2019-04-23T01:42:22.472Z,84.4177
2019-04-23T01:43:19.657Z,84.4177
2019-04-23T01:44:31.345Z,84.5581
2019-04-23T01:45:42.123Z,84.8694
2019-04-23T01:46:45.416Z,85.0708
2019-04-23T01:47:50.042Z,85.1746
2019-04-23T01:49:02.121Z,85.0708
2019-04-23T01:51:06.288Z,84.8694
2019-04-23T01:52:25.002Z,84.7656
2019-04-23T01:53:37.076Z,84.7656
2019-04-23T01:54:37.102Z,84.6619
2019-04-23T01:55:46.543Z,84.7656
2019-04-23T01:56:56.613Z,84.8694
2019-04-23T01:58:24.015Z,85.1746
2019-04-23T01:59:11.985Z,85.3821
2019-04-23T02:00:22.822Z,85.3821
2019-04-23T02:01:44.604Z,85.2783
2019-04-23T02:02:47.659Z,85.1746
2019-04-23T02:03:46.986Z,85.1746
2019-04-23T02:04:53.787Z,85.2783
2019-04-23T02:06:00.027Z,85.2783
2019-04-23T02:07:11.297Z,85.0708
2019-04-23T02:08:15.647Z,85.0708
2019-04-23T02:09:24.998Z,85.1746
2019-04-23T02:10:41.596Z,85.3821
2019-04-23T02:11:40.290Z,85.5896
2019-04-23T02:13:56.801Z,85.7910
2019-04-23T02:15:05.113Z,85.7910
2019-04-23T02:16:15.255Z,85.8948
2019-04-23T02:17:21.956Z,85.8948
2019-04-23T02:18:33.913Z,85.8948
2019-04-23T02:19:40.483Z,85.6934
2019-04-23T02:21:55.111Z,85.6934
2019-04-23T02:24:06.729Z,85.3821
2019-04-23T02:25:25.106Z,85.3821
2019-04-23T02:26:41.715Z,85.2783
2019-04-23T02:27:36.109Z,85.3821
2019-04-23T02:28:49.629Z,85.7910
2019-04-23T02:30:05.799Z,85.8948
2019-04-23T02:32:09.227Z,85.8948
2019-04-23T02:33:31.978Z,85.7910
2019-04-23T02:34:47.191Z,85.5896
2019-04-23T02:35:50.576Z,85.4858
2019-04-23T02:36:48.814Z,85.3821
2019-04-23T02:40:26.691Z,85.0708
2019-04-23T02:43:00.892Z,84.8694
2019-04-23T02:43:22.011Z,85.0708
2019-04-23T02:45:56.413Z,84.9670
2019-04-23T02:48:10.514Z,84.7656
2019-04-23T02:50:34.943Z,84.8694
2019-04-23T02:51:30.877Z,84.5947
2019-04-23T02:53:53.513Z,84.6985
2019-04-23T02:54:58.600Z,84.6985
2019-04-23T02:56:24.135Z,85.0098
2019-04-23T02:57:08.812Z,85.0708
2019-04-23T02:58:18.567Z,84.8694
2019-04-23T02:59:34.507Z,84.7656
2019-04-23T03:01:39.987Z,84.8694
2019-04-23T03:04:02.324Z,84.2468
2019-04-23T03:05:19.903Z,84.2468
2019-04-23T03:06:16.698Z,84.1064
2019-04-23T03:08:32.499Z,83.8989
2019-04-23T03:10:55.630Z,83.6975
2019-04-23T03:12:00.723Z,83.5938
2019-04-23T03:13:10.227Z,83.6975
2019-04-23T03:14:16.875Z,83.6548
2019-04-23T03:15:35.515Z,83.7585
2019-04-23T03:17:36.055Z,83.5510
2019-04-23T03:18:49.304Z,83.5510
2019-04-23T03:22:14.975Z,81.9702
2019-04-23T03:23:29.178Z,82.0740
2019-04-23T03:24:38.877Z,82.2815
2019-04-23T03:25:46.074Z,82.2815
2019-04-23T03:26:47.837Z,82.2815
2019-04-23T03:27:41.599Z,81.9336
2019-04-23T03:29:04.355Z,81.5247
2019-04-23T03:30:15.770Z,81.3171
2019-04-23T03:38:16.551Z,77.2705
2019-04-23T03:38:56.610Z,76.6541
2019-04-23T03:43:49.070Z,77.3376
2019-04-23T03:45:00.770Z,77.0325
2019-04-23T03:47:13.817Z,77.5452
2019-04-23T03:49:19.550Z,77.7466
2019-04-23T03:51:43.411Z,75.4883
2019-04-23T03:52:50.621Z,75.0427
2019-04-23T03:54:11.653Z,75.4517
2019-04-23T03:55:03.704Z,75.7629
2019-04-23T03:56:25.469Z,75.4517
2019-04-23T03:58:28.180Z,75.9705
2019-04-23T04:00:58.050Z,75.7629
2019-04-23T04:02:03.492Z,75.8667
2019-04-23T04:04:24.740Z,75.0427
2019-04-23T04:05:23.999Z,74.6338
2019-04-23T04:07:37.546Z,76.0376
2019-04-23T04:08:33.892Z,76.4465
2019-04-23T04:09:47.638Z,76.4465
2019-04-23T04:12:04.462Z,76.7517
2019-04-23T04:13:15.860Z,76.6479
2019-04-23T04:15:46.202Z,75.4211
2019-04-23T04:16:51.681Z,75.8301
2019-04-23T04:17:48.541Z,76.1353
2019-04-23T04:18:54.646Z,76.3428
2019-04-23T04:20:11.050Z,76.7517
2019-04-23T04:23:33.473Z,76.9592
2019-04-23T04:24:34.659Z,77.4719
2019-04-23T04:25:49.866Z,77.9846
2019-04-23T04:28:03.491Z,76.5503
2019-04-23T04:29:19.433Z,76.3428
2019-04-23T04:30:10.724Z,76.3428
2019-04-23T04:31:21.038Z,76.5808
2019-04-23T04:32:38.300Z,76.5808
2019-04-23T04:33:56.000Z,77.0996
2019-04-23T04:35:58.473Z,77.9175
2019-04-23T04:37:35.197Z,78.1250
2019-04-23T04:38:25.725Z,78.5339
2019-04-23T04:39:19.682Z,78.4302
2019-04-23T04:41:39.963Z,76.7883
2019-04-23T04:42:41.899Z,76.2756
2019-04-23T04:45:09.631Z,76.5808
2019-04-23T04:46:25.380Z,76.5808
2019-04-23T04:47:21.519Z,76.5808
2019-04-23T04:48:26.086Z,76.3794
2019-04-23T04:50:45.849Z,76.5808
2019-04-23T04:53:00.749Z,77.0996
2019-04-23T04:54:17.845Z,77.1973
2019-04-23T04:55:12.940Z,77.0996
2019-04-23T04:56:20.935Z,76.9958
2019-04-23T04:58:43.261Z,77.3010
2019-04-23T04:59:50.947Z,77.6123
2019-04-23T05:01:04.081Z,78.0212
2019-04-23T05:02:09.668Z,77.8137
2019-04-23T05:04:19.833Z,77.6123
2019-04-23T05:06:01.761Z,76.6846
2019-04-23T05:06:39.407Z,76.3428
2019-04-23T05:07:40.487Z,76.5503
2019-04-23T05:10:12.751Z,76.8555
2019-04-23T05:11:11.335Z,77.0630
2019-04-23T05:12:18.359Z,76.9592
2019-04-23T05:16:47.035Z,77.6794
2019-04-23T05:19:02.517Z,78.2898
2019-04-23T05:20:05.642Z,78.7720
2019-04-23T05:21:12.053Z,78.6682
2019-04-23T05:22:22.518Z,78.3569
2019-04-23T05:23:28.143Z,78.3569
2019-04-23T05:24:37.056Z,78.1555
2019-04-23T05:25:47.816Z,78.1555
2019-04-23T05:26:48.126Z,77.7405
2019-04-23T05:29:15.227Z,77.0935
2019-04-23T05:32:32.939Z,77.3987
2019-04-23T05:33:39.106Z,77.7710
2019-04-23T05:34:46.687Z,78.2837
2019-04-23T05:38:37.696Z,78.0823
2019-04-23T05:40:42.843Z,77.2278
2019-04-23T05:41:36.805Z,76.8127
2019-04-23T05:42:49.377Z,76.6113
2019-04-23T05:43:57.361Z,76.5076
2019-04-23T05:46:19.822Z,76.5076
2019-04-23T05:47:20.308Z,76.2024
2019-04-23T05:48:23.408Z,76.5076
2019-04-23T05:49:31.274Z,76.7151
2019-04-23T05:50:53.901Z,76.9165
2019-04-23T05:52:59.273Z,77.0203
2019-04-23T05:54:08.472Z,76.3672
2019-04-23T05:55:13.649Z,76.6785
2019-04-23T05:56:21.392Z,76.7822
2019-04-23T05:57:19.813Z,75.9583
2019-04-23T05:59:51.714Z,76.1658
2019-04-23T06:01:26.374Z,76.6418
2019-04-23T06:05:37.088Z,75.2075
2019-04-23T06:06:45.182Z,73.7793
2019-04-23T06:08:53.362Z,74.2554
2019-04-23T06:10:00.576Z,74.6643
2019-04-23T06:11:08.544Z,74.8657
2019-04-23T06:12:16.842Z,75.4822
2019-04-23T06:13:26.338Z,75.6836
2019-04-23T06:14:35.682Z,74.4263
2019-04-23T06:15:36.916Z,73.9136
2019-04-23T06:16:55.242Z,74.3225
2019-04-23T06:18:02.309Z,74.4934
2019-04-23T06:19:09.604Z,74.9023
2019-04-23T06:21:24.142Z,75.1709
2019-04-23T06:22:48.106Z,75.1709
2019-04-23T06:23:50.108Z,74.9695
2019-04-23T06:24:41.080Z,74.7253
2019-04-23T06:26:19.856Z,74.7253
2019-04-23T06:27:01.727Z,74.6948
2019-04-23T06:29:20.540Z,73.9441
2019-04-23T06:30:27.834Z,73.9441
2019-04-23T06:31:38.067Z,73.4985
2019-04-23T06:32:37.582Z,73.6023
2019-04-23T06:33:52.332Z,73.4985
2019-04-23T06:34:52.823Z,73.2605
2019-04-23T06:36:06.584Z,72.7539
2019-04-23T06:37:08.976Z,72.2412
2019-04-23T06:39:29.259Z,71.7041
2019-04-23T06:40:34.078Z,71.8018
2019-04-23T06:41:49.944Z,71.8018
2019-04-23T06:42:53.135Z,71.7041
2019-04-23T06:44:05.845Z,71.4661
2019-04-23T06:45:06.325Z,71.3623
2019-04-23T06:46:19.990Z,71.3257
2019-04-23T06:47:23.521Z,70.8191
2019-04-23T06:48:35.230Z,70.0745
2019-04-23T06:49:49.523Z,69.0552
2019-04-23T06:51:04.654Z,69.1284
2019-04-23T06:53:00.629Z,69.0247
2019-04-23T06:54:13.450Z,69.0918
2019-04-23T06:55:20.389Z,68.6890
2019-04-23T06:56:35.182Z,68.5852
2019-04-23T06:57:41.145Z,67.7429
2019-04-23T06:58:43.965Z,66.6260
2019-04-23T06:59:52.533Z,66.5955
2019-04-23T07:01:00.399Z,65.4785
2019-04-23T07:02:17.238Z,65.5762
2019-04-23T07:03:23.322Z,63.5193
2019-04-23T07:04:28.648Z,62.2986
2019-04-23T07:05:39.350Z,62.2681
2019-04-23T07:06:47.160Z,63.1836
2019-04-23T07:07:50.037Z,63.4583
2019-04-23T07:09:07.802Z,63.4277
2019-04-23T07:10:07.251Z,61.8042
2019-04-23T07:11:23.394Z,61.7798
2019-04-23T07:12:25.770Z,61.8530
2019-04-23T07:13:40.185Z,60.7361
2019-04-23T07:14:44.152Z,60.1318
2019-04-23T07:16:52.649Z,57.8003
2019-04-23T07:18:03.980Z,59.2163
2019-04-23T07:19:18.599Z,60.1990
2019-04-23T07:20:25.236Z,60.5042
2019-04-23T07:21:29.544Z,60.1990
2019-04-23T07:22:53.880Z,59.2896
2019-04-23T07:23:53.884Z,58.8867
2019-04-23T07:24:50.912Z,58.8867
2019-04-23T07:26:14.082Z,58.8867
2019-04-23T07:27:04.830Z,57.7759
2019-04-23T07:28:21.424Z,58.1787
2019-04-23T07:29:26.307Z,58.4839
2019-04-23T07:30:33.314Z,58.3801
2019-04-23T07:31:44.487Z,56.5613
2019-04-23T07:32:52.582Z,55.5725
2019-04-23T07:35:07.115Z,56.6895
2019-04-23T07:36:17.190Z,57.2937
2019-04-23T07:37:17.614Z,58.1055
2019-04-23T07:38:40.912Z,58.5815
2019-04-23T07:39:45.630Z,58.4839
2019-04-23T07:40:40.479Z,58.5815
2019-04-23T07:43:03.474Z,59.7717
2019-04-23T07:44:20.738Z,59.6680
2019-04-23T07:46:38.334Z,60.0464
2019-04-23T07:47:55.303Z,60.2478
2019-04-23T07:48:37.233Z,59.4360
2019-04-23T07:50:04.979Z,59.1064
2019-04-23T07:51:06.485Z,58.0933
2019-04-23T07:52:18.008Z,57.2876
2019-04-23T07:55:43.594Z,56.4514
2019-04-23T07:56:45.960Z,56.9580
2019-04-23T07:57:52.373Z,57.3364
2019-04-23T07:58:57.688Z,57.6111
2019-04-23T08:01:09.567Z,56.7505
2019-04-23T08:02:26.149Z,55.8167
2019-04-23T08:03:43.574Z,55.0842
2019-04-23T08:04:42.571Z,54.4556
2019-04-23T08:05:59.406Z,54.1504
2019-04-23T08:06:52.417Z,54.2297
2019-04-23T08:08:01.649Z,52.9175
2019-04-23T08:09:15.888Z,52.7954
2019-04-23T08:10:14.200Z,53.0701
2019-04-23T08:11:35.888Z,53.0457
2019-04-23T08:12:46.939Z,53.1433
2019-04-23T08:13:55.553Z,52.7405
2019-04-23T08:14:53.540Z,52.5146
2019-04-23T08:15:58.561Z,51.4160
2019-04-23T08:17:07.097Z,50.4089
2019-04-23T08:18:26.295Z,51.4893
2019-04-23T08:19:24.560Z,51.3672
2019-04-23T08:20:46.961Z,50.3906
2019-04-23T08:21:32.022Z,48.3398
2019-04-23T08:22:45.807Z,47.3145
2019-04-23T08:23:58.598Z,47.8699
2019-04-23T08:26:23.888Z,46.1304
2019-04-23T08:28:35.421Z,43.7317
2019-04-23T08:29:28.015Z,44.5068
2019-04-23T08:31:52.840Z,44.4641
2019-04-23T08:33:00.308Z,43.9453
2019-04-23T08:34:17.013Z,44.0247
2019-04-23T08:35:33.965Z,44.0063
2019-04-23T08:36:27.261Z,42.8894
2019-04-23T08:37:47.868Z,43.2861
2019-04-23T08:39:46.990Z,43.2861
2019-04-23T08:41:12.864Z,41.4978
2019-04-23T08:42:27.309Z,40.8813
2019-04-23T08:43:19.391Z,40.4419
2019-04-23T08:46:51.996Z,39.9475
2019-04-23T08:47:50.686Z,40.0085
2019-04-23T08:49:00.805Z,39.5752
2019-04-23T08:50:04.326Z,38.0554
2019-04-23T08:51:25.973Z,37.5244
2019-04-23T08:52:18.251Z,37.0911
2019-04-23T08:53:37.557Z,36.8774
2019-04-23T08:55:53.925Z,35.1685
2019-04-23T08:56:55.151Z,34.7717
2019-04-23T08:57:56.124Z,34.7717
2019-04-23T08:59:21.332Z,34.1980
2019-04-23T09:00:20.663Z,34.6069
2019-04-23T09:01:24.881Z,34.6436
2019-04-23T09:04:55.423Z,36.6882
2019-04-23T09:06:11.804Z,35.7300
2019-04-23T09:07:12.883Z,36.4258
2019-04-23T09:08:20.347Z,36.6089
2019-04-23T09:09:27.151Z,36.4380
2019-04-23T09:10:36.060Z,34.6924
2019-04-23T09:16:05.248Z,34.8999
2019-04-23T09:18:23.061Z,33.2947
2019-04-23T09:19:41.218Z,31.5125
2019-04-23T09:20:30.647Z,31.8237
2019-04-23T09:21:50.370Z,33.0322
2019-04-23T09:22:53.043Z,33.5571
2019-04-23T09:24:07.290Z,33.7891
2019-04-23T09:25:23.131Z,35.0830
2019-04-23T09:26:07.985Z,35.6140
2019-04-23T09:27:41.435Z,36.7310
2019-04-23T09:28:45.739Z,36.5723
2019-04-23T09:29:52.914Z,36.2122
2019-04-23T09:30:57.488Z,37.7319
2019-04-23T09:33:13.931Z,38.6963
2019-04-23T09:34:19.344Z,37.6221
2019-04-23T09:35:27.435Z,38.0371
2019-04-23T09:36:37.966Z,37.9578
2019-04-23T09:38:54.101Z,39.1846
2019-04-23T09:39:58.857Z,39.5020
2019-04-23T09:41:22.326Z,37.5305
2019-04-23T09:42:19.502Z,38.9648
2019-04-23T09:43:22.927Z,38.5864
2019-04-23T09:45:41.209Z,40.6982
2019-04-23T09:46:55.756Z,41.8152
2019-04-23T09:49:16.226Z,41.8335
2019-04-23T09:50:15.695Z,42.5537
2019-04-23T09:51:25.492Z,43.5547
2019-04-23T09:52:30.941Z,44.2505
2019-04-23T09:53:33.926Z,44.5496
2019-04-23T09:54:49.587Z,44.1528
2019-04-23T09:55:49.860Z,45.6482
2019-04-23T09:56:57.040Z,42.9504
2019-04-23T09:58:11.639Z,42.7551
2019-04-23T09:59:28.625Z,43.5547
2019-04-23T10:00:31.507Z,42.6514
2019-04-23T10:01:29.207Z,43.4509
2019-04-23T10:02:29.155Z,45.2271
2019-04-23T10:03:39.046Z,44.6289
2019-04-23T10:04:46.312Z,45.2087
2019-04-23T10:05:50.574Z,43.7073
2019-04-23T10:07:00.273Z,44.2078
2019-04-23T10:08:04.136Z,42.9932
2019-04-23T10:09:05.463Z,40.7959
2019-04-23T10:10:10.301Z,40.7959
2019-04-23T10:11:13.797Z,41.0156
2019-04-23T10:12:17.624Z,42.4133
2019-04-23T10:13:20.180Z,43.0115
2019-04-23T10:14:24.143Z,44.2871
2019-04-23T10:15:34.349Z,42.9932
2019-04-23T10:16:43.171Z,42.1936
2019-04-23T10:17:46.459Z,41.6748
2019-04-23T10:18:49.228Z,40.9790
2019-04-23T10:19:53.007Z,40.4785
2019-04-23T10:20:56.537Z,40.9790
2019-04-23T10:21:59.844Z,40.8569
2019-04-23T10:23:04.213Z,41.1560
2019-04-23T10:24:07.584Z,41.6321
2019-04-23T10:25:10.999Z,39.8438
2019-04-23T10:26:14.396Z,40.4175
2019-04-23T10:27:18.770Z,40.6982
2019-04-23T10:28:22.970Z,39.5874
2019-04-23T10:29:27.740Z,39.6667
2019-04-23T10:30:29.179Z,39.5691
2019-04-23T10:31:33.480Z,41.0583
2019-04-23T10:32:37.764Z,40.3625
2019-04-23T10:33:40.199Z,40.7593
2019-04-23T10:34:53.506Z,40.7593
2019-04-23T10:35:56.995Z,41.2354
2019-04-23T10:36:59.637Z,41.6321
2019-04-23T10:38:06.594Z,40.1062
2019-04-23T10:39:17.830Z,39.7888
2019-04-23T10:40:25.486Z,39.4531
2019-04-23T10:41:27.749Z,38.6047
2019-04-23T10:42:34.062Z,38.0737
2019-04-23T10:43:42.139Z,37.3413
2019-04-23T10:44:50.410Z,35.7300
2019-04-23T10:46:15.429Z,36.3220
2019-04-23T10:47:32.330Z,37.4084
2019-04-23T10:48:47.671Z,35.8276
2019-04-23T10:49:52.941Z,34.2651
2019-04-23T10:51:00.326Z,34.6619
2019-04-23T10:52:19.072Z,33.4900
2019-04-23T10:54:32.998Z,33.1787
2019-04-23T10:55:34.567Z,33.0811
2019-04-23T10:56:43.351Z,33.1604
2019-04-23T10:57:39.257Z,31.8787
2019-04-23T10:58:45.830Z,33.3618
2019-04-23T10:59:53.590Z,32.3853
2019-04-23T11:03:42.424Z,34.3628
2019-04-23T11:04:47.632Z,33.0811
2019-04-23T11:05:55.202Z,33.8501
2019-04-23T11:06:49.985Z,33.6548
2019-04-23T11:07:53.614Z,33.7708
2019-04-23T11:09:25.525Z,32.3853
2019-04-23T11:10:17.440Z,32.5989
2019-04-23T11:11:32.346Z,34.8755
2019-04-23T11:13:38.022Z,33.9172
2019-04-23T11:14:49.811Z,33.7891
2019-04-23T11:16:21.573Z,32.5745
2019-04-23T11:17:04.278Z,32.1655
2019-04-23T11:18:04.158Z,33.7036
2019-04-23T11:19:25.580Z,33.5571
2019-04-23T11:22:45.168Z,32.0740
2019-04-23T11:24:20.726Z,31.1646
2019-04-23T11:25:15.130Z,27.8320
2019-04-23T11:26:15.584Z,29.3945
2019-04-23T11:27:22.321Z,28.0396
2019-04-23T11:28:27.848Z,28.3569
2019-04-23T11:29:40.482Z,31.4880
2019-04-23T11:31:55.266Z,31.1768
2019-04-23T11:33:15.709Z,30.3833
2019-04-23T11:34:20.295Z,29.5715
2019-04-23T11:35:42.466Z,29.9500
2019-04-23T11:37:53.370Z,28.8635
2019-04-23T11:38:56.099Z,30.2246
2019-04-23T11:39:51.606Z,29.4434
2019-04-23T11:40:59.957Z,30.5176
2019-04-23T11:44:26.391Z,31.1218
2019-04-23T11:46:54.021Z,33.3801
2019-04-23T11:49:22.564Z,29.1016
2019-04-23T11:52:30.612Z,28.8879
2019-04-23T11:53:36.046Z,28.8208
2019-04-23T11:54:35.547Z,28.7476
2019-04-23T11:58:16.660Z,30.1819
2019-04-23T11:59:19.058Z,31.6895
2019-04-23T12:01:42.211Z,31.4087
2019-04-23T12:02:40.073Z,33.1970
2019-04-23T12:03:58.646Z,33.8867
2019-04-23T12:05:05.494Z,32.8003
2019-04-23T12:06:07.159Z,31.5247
2019-04-23T12:07:09.115Z,32.4097
2019-04-23T12:08:26.673Z,32.7026
2019-04-23T12:09:40.082Z,32.0129
2019-04-23T12:10:37.721Z,31.3232
2019-04-23T12:12:44.803Z,31.7200
2019-04-23T12:14:03.709Z,33.0017
2019-04-23T12:15:15.336Z,33.0017
2019-04-23T12:16:20.562Z,33.5876
2019-04-23T12:17:31.734Z,33.6731
2019-04-23T12:20:57.556Z,32.0496
2019-04-23T12:22:01.399Z,32.1350
2019-04-23T12:23:19.383Z,32.8857
2019-04-23T12:24:21.889Z,33.1482
2019-04-23T12:25:25.128Z,32.9407
2019-04-23T12:27:31.481Z,32.0068
2019-04-23T12:28:46.976Z,32.6782
2019-04-23T12:30:08.641Z,31.7810
2019-04-23T12:31:02.742Z,33.4473
2019-04-23T12:32:24.055Z,32.1716
2019-04-23T12:33:28.162Z,32.4829
2019-04-23T12:34:30.007Z,32.1045
2019-04-23T12:35:29.023Z,30.7373
2019-04-23T12:36:44.139Z,31.7993
2019-04-23T12:37:49.381Z,32.2693
2019-04-23T12:39:05.389Z,30.4932
2019-04-23T12:41:12.841Z,30.4504
2019-04-23T12:42:45.207Z,29.3762
2019-04-23T12:43:25.452Z,30.3528
2019-04-23T12:44:44.196Z,31.0364
2019-04-23T12:47:05.371Z,31.7383
2019-04-23T12:48:09.605Z,32.2388
2019-04-23T12:49:20.541Z,32.6294
2019-04-23T12:50:41.811Z,32.2388
2019-04-23T12:51:38.078Z,30.8716
2019-04-23T12:54:01.395Z,32.6294
2019-04-23T12:56:21.334Z,32.1106
2019-04-23T12:58:15.741Z,31.8359
2019-04-23T12:59:27.232Z,33.1177
2019-04-23T13:00:35.825Z,33.2336
2019-04-23T13:01:42.702Z,33.6426
2019-04-23T13:02:48.574Z,33.6426
2019-04-23T13:03:50.582Z,33.2458
2019-04-23T13:05:23.157Z,33.5571
2019-04-23T13:06:09.547Z,34.1431
2019-04-23T13:07:26.074Z,34.7351
2019-04-23T13:08:41.566Z,34.8328
2019-04-23T13:10:45.322Z,35.5957
2019-04-23T13:12:05.676Z,35.3027
2019-04-23T13:13:09.318Z,34.8938
2019-04-23T13:14:17.376Z,35.1868
2019-04-23T13:16:37.674Z,34.1919
2019-04-23T13:17:48.935Z,30.7739
2019-04-23T13:18:46.754Z,31.8481
2019-04-23T13:19:58.267Z,30.9692
2019-04-23T13:21:00.031Z,30.6763
2019-04-23T13:23:34.542Z,31.1768
2019-04-23T13:24:26.546Z,29.1260
2019-04-23T13:26:40.086Z,28.5706
2019-04-23T13:28:01.902Z,29.3518
2019-04-23T13:29:05.039Z,29.8523
2019-04-23T13:30:08.632Z,30.4443
2019-04-23T13:32:32.704Z,30.0659
2019-04-23T13:34:49.937Z,31.3538
2019-04-23T13:35:53.282Z,31.8604
2019-04-23T13:37:08.300Z,28.7231
2019-04-23T13:38:10.402Z,28.9185
2019-04-23T13:39:24.678Z,32.1716
2019-04-23T13:40:27.739Z,31.6772
2019-04-23T13:41:23.134Z,32.4768
2019-04-23T13:42:52.541Z,32.2815
2019-04-23T13:43:54.842Z,32.5928
2019-04-23T13:44:54.789Z,33.2825
2019-04-23T13:46:10.011Z,33.9844
2019-04-23T13:47:21.976Z,34.4727
2019-04-23T13:49:31.552Z,32.5256
2019-04-23T13:50:43.294Z,32.8186
2019-04-23T13:51:43.505Z,32.7393
2019-04-23T13:53:15.296Z,32.5439
2019-04-23T13:54:17.343Z,33.7219
2019-04-23T13:55:09.206Z,33.7219
2019-04-23T13:56:29.700Z,34.7046
2019-04-23T13:57:59.220Z,35.5896
2019-04-23T13:58:36.316Z,35.1990
2019-04-23T13:59:44.467Z,34.9976
2019-04-23T14:01:01.262Z,32.9346
2019-04-23T14:02:08.198Z,33.9172
2019-04-23T14:03:09.795Z,29.0161
2019-04-23T14:04:21.329Z,30.9998
2019-04-23T14:05:26.753Z,32.7698
2019-04-23T14:06:36.694Z,33.5754
2019-04-23T14:07:48.326Z,33.1787
2019-04-23T14:10:08.627Z,34.4604
2019-04-23T14:11:13.370Z,35.3455
2019-04-23T14:12:18.226Z,35.5408
2019-04-23T14:13:39.332Z,34.8389
2019-04-23T14:15:47.653Z,34.3445
2019-04-23T14:16:56.191Z,32.4768
2019-04-23T14:18:10.468Z,34.1492
2019-04-23T14:19:02.325Z,35.7239
2019-04-23T14:20:13.797Z,35.7239
2019-04-23T14:22:51.128Z,34.4604
2019-04-23T14:23:57.794Z,34.1797
2019-04-23T14:24:59.251Z,35.0830
2019-04-23T14:27:01.164Z,35.4126
2019-04-23T14:29:21.636Z,36.3403
2019-04-23T14:30:39.024Z,37.3230
2019-04-23T14:32:01.294Z,35.7483
2019-04-23T14:32:48.717Z,36.0596
2019-04-23T14:34:01.311Z,36.6516
2019-04-23T14:35:11.479Z,34.8755
2019-04-23T14:36:07.662Z,36.3708
2019-04-23T14:39:41.073Z,36.4746
2019-04-23T14:40:43.156Z,36.5723
2019-04-23T14:41:54.163Z,35.9802
2019-04-23T14:43:15.122Z,34.2957
2019-04-23T14:44:10.757Z,35.2844
2019-04-23T14:45:33.862Z,35.9924
2019-04-23T14:48:00.853Z,36.5906
2019-04-23T14:48:39.071Z,37.2803
2019-04-23T14:49:58.874Z,36.1938
2019-04-23T14:51:00.071Z,35.6995
2019-04-23T14:53:26.093Z,32.3364
2019-04-23T14:54:24.832Z,34.3140
2019-04-23T14:55:48.965Z,32.6355
2019-04-23T14:56:52.607Z,33.4412
2019-04-23T14:57:55.854Z,33.9355
2019-04-23T15:00:03.206Z,33.4229
2019-04-23T15:03:26.728Z,32.1533
2019-04-23T15:04:32.007Z,33.7341
2019-04-23T15:05:51.778Z,33.0444
2019-04-23T15:07:58.065Z,33.6365
2019-04-23T15:09:19.659Z,33.7341
2019-04-23T15:10:32.629Z,34.1187
2019-04-23T15:11:29.495Z,34.0149
2019-04-23T15:12:38.126Z,33.6243
2019-04-23T15:15:02.578Z,34.8083
2019-04-23T15:16:09.791Z,35.8765
2019-04-23T15:17:12.686Z,35.9802
2019-04-23T15:18:25.267Z,36.5723
2019-04-23T15:20:42.339Z,36.2549
2019-04-23T15:25:21.579Z,31.1462
2019-04-23T15:27:02.529Z,32.5317
2019-04-23T15:28:09.161Z,36.0962
2019-04-23T15:29:27.836Z,36.9812
2019-04-23T15:30:45.949Z,36.7859
2019-04-23T15:32:03.196Z,36.7859
2019-04-23T15:33:11.790Z,35.7178
2019-04-23T15:34:13.998Z,36.1084
2019-04-23T15:35:31.589Z,34.8267
2019-04-23T15:36:41.546Z,34.3323
2019-04-23T15:38:53.826Z,34.4482
2019-04-23T15:41:08.298Z,35.3516
2019-04-23T15:42:26.425Z,35.7483
2019-04-23T15:43:14.475Z,36.6394
2019-04-23T15:44:16.373Z,37.7319
2019-04-23T15:45:42.260Z,36.2427
2019-04-23T15:48:00.583Z,35.6689
2019-04-23T15:49:07.935Z,34.6802
2019-04-23T15:50:21.488Z,35.5713
2019-04-23T15:51:20.132Z,37.6526
2019-04-23T15:52:30.230Z,38.6414
2019-04-23T15:53:26.649Z,38.7207
2019-04-23T15:54:43.047Z,38.0310
2019-04-23T15:55:55.452Z,37.2559
2019-04-23T15:57:01.187Z,38.1470
2019-04-23T16:00:17.829Z,36.9751
2019-04-23T16:01:39.556Z,36.6943
2019-04-23T16:02:09.706Z,36.2976
2019-04-23T16:03:13.589Z,36.7126
2019-04-23T16:04:19.822Z,37.6038
2019-04-23T16:05:25.751Z,37.6221
2019-04-23T16:06:32.723Z,38.5193
2019-04-23T16:07:54.885Z,38.9160
2019-04-23T16:09:06.477Z,38.2385
2019-04-23T16:10:26.168Z,38.7329
2019-04-23T16:12:45.662Z,35.0769
2019-04-23T16:14:04.754Z,37.3596
2019-04-23T16:15:03.020Z,37.2803
2019-04-23T16:16:07.683Z,35.6873
2019-04-23T16:17:13.823Z,34.6130
2019-04-23T16:18:28.190Z,35.0281
2019-04-23T16:19:25.198Z,36.6394
2019-04-23T16:20:39.914Z,36.5540
2019-04-23T16:23:04.709Z,38.6658
2019-04-23T16:24:06.073Z,39.2639
2019-04-23T16:25:20.607Z,38.8855
2019-04-23T16:26:32.651Z,39.9963
2019-04-23T16:27:31.947Z,40.5151
2019-04-23T16:29:00.793Z,40.9363
2019-04-23T16:31:09.450Z,43.1763
2019-04-23T16:32:10.046Z,42.8955
2019-04-23T16:34:27.109Z,43.2129
2019-04-23T16:35:34.585Z,43.7378
2019-04-23T16:36:41.520Z,42.7368
2019-04-23T16:37:49.213Z,42.9565
2019-04-23T16:38:54.950Z,42.8528
2019-04-23T16:41:09.929Z,44.2810
2019-04-23T16:42:17.501Z,44.0796
2019-04-23T16:43:19.949Z,44.9768
2019-04-23T16:44:38.187Z,45.0012
2019-04-23T16:45:38.377Z,44.2993
2019-04-23T16:48:09.232Z,47.3083
2019-04-23T16:49:15.545Z,45.5017
2019-04-23T16:51:16.486Z,43.0969
2019-04-23T16:52:26.488Z,43.4998
2019-04-23T16:53:31.481Z,44.2200
2019-04-23T16:54:55.030Z,45.2209
2019-04-23T16:56:05.186Z,41.8152